logo
Search for airport 
image banner adimage banner adimage banner ad
image banner ad

MZGJ - Gallon Jug Airstrip

Located in , Belize

ICAO - , IATA -

Data provided by Airmate  

General information

Coordinates: N17°33'60" W89°3'0"
Elevation is 386 feet MSL.
 
View others Airports in Orange Walk District

Operational data

Special qualification required
Current time UTC:
Current local time:
TAF: TAF MZBZ 220300Z 2206/2306 09006KT 9999 SCT022
View NOTAMs / SUP AIP / TFR affecting this airport [VIEW]
Communications frequencies: [VIEW]

Runways:

RWY identifierQFULength (ft)Width (ft)SurfaceLDA (ft)
1000UNK
2800UNK

Airport contact information

Address: Belize

Satellite view of MZGJ